Time;durP1;ratioP1;P1;durP2;ratioP2;P2;SDS_P1;SDS_P2;PMS_P1;PMS_P2;Temp;Humidity;BMP_temperature;BMP_pressure;BME280_temperature;BME280_humidity;BME280_pressure;Samples;Min_cycle;Max_cycle;Signal;HPM_P1;HPM_P2
2023/02/01 00:02:10;;;;;;;;;;;26.00;99.90;;;;;;5013432;28;19926;-61
2023/02/01 00:04:37;;;;;;;;;;;25.70;99.90;;;;;;5013966;28;19940;-60
2023/02/01 00:07:04;;;;;;;;;;;25.90;99.90;;;;;;5013886;28;20479;-61
2023/02/01 00:09:30;;;;;;;;;;;25.70;99.90;;;;;;5013577;28;20614;-61
2023/02/01 00:11:59;;;;;;;;;;;25.80;99.90;;;;;;5013677;28;19916;-61
2023/02/01 00:14:25;;;;;;;;;;;25.90;99.90;;;;;;5013671;28;19987;-61
2023/02/01 00:16:52;;;;;;;;;;;26.00;99.90;;;;;;5013879;28;19917;-61
2023/02/01 00:19:19;;;;;;;;;;;26.00;99.90;;;;;;5013331;28;19909;-61
2023/02/01 00:21:45;;;;;;;;;;;25.80;99.90;;;;;;5013363;28;19956;-61
2023/02/01 00:24:12;;;;;;;;;;;25.70;99.90;;;;;;5013654;28;19913;-61
2023/02/01 00:26:43;;;;;;;;;;;25.90;99.90;;;;;;5013569;28;19959;-60
2023/02/01 00:29:14;;;;;;;;;;;26.10;99.90;;;;;;5013532;28;19961;-60
2023/02/01 00:31:41;;;;;;;;;;;26.00;99.90;;;;;;5013123;28;19909;-60
2023/02/01 00:34:09;;;;;;;;;;;26.00;99.90;;;;;;5013318;28;19921;-65
2023/02/01 00:36:36;;;;;;;;;;;25.60;99.90;;;;;;5013464;28;19917;-61
2023/02/01 00:39:03;;;;;;;;;;;25.90;99.90;;;;;;5013748;28;20372;-61
2023/02/01 00:41:29;;;;;;;;;;;26.00;99.90;;;;;;5012736;28;19916;-61
2023/02/01 00:43:56;;;;;;;;;;;26.00;99.90;;;;;;5013463;28;20000;-61
2023/02/01 00:46:23;;;;;;;;;;;25.90;99.90;;;;;;5013293;28;19940;-60
2023/02/01 00:48:50;;;;;;;;;;;26.20;99.90;;;;;;5013189;28;20024;-60
2023/02/01 00:51:20;;;;;;;;;;;26.30;99.90;;;;;;5013004;28;19917;-61
2023/02/01 00:53:47;;;;;;;;;;;26.50;99.90;;;;;;5013188;28;19943;-61
2023/02/01 00:56:13;;;;;;;;;;;26.60;99.90;;;;;;5013242;28;20283;-61
2023/02/01 00:58:41;;;;;;;;;;;26.70;99.90;;;;;;5013236;28;19913;-61
2023/02/01 01:01:18;;;;;;;;;;;26.80;99.90;;;;;;5012538;28;19921;-61
2023/02/01 01:03:46;;;;;;;;;;;26.80;99.90;;;;;;5013204;28;19914;-61
2023/02/01 01:06:15;;;;;;;;;;;27.00;99.90;;;;;;5012960;28;19913;-61
2023/02/01 01:08:42;;;;;;;;;;;27.10;99.90;;;;;;5012931;28;19913;-61
2023/02/01 01:11:19;;;;;;;;;;;27.10;99.90;;;;;;5012594;28;19992;-61
2023/02/01 01:13:49;;;;;;;;;;;26.90;99.90;;;;;;5012968;28;20032;-61
2023/02/01 01:16:16;;;;;;;;;;;26.70;99.90;;;;;;5012980;28;19944;-61
2023/02/01 01:18:43;;;;;;;;;;;26.70;99.90;;;;;;5012796;28;19939;-62
2023/02/01 01:21:11;;;;;;;;;;;26.90;99.90;;;;;;5012410;28;19917;-63
2023/02/01 01:23:38;;;;;;;;;;;26.50;99.90;;;;;;5011929;28;20372;-61
2023/02/01 01:26:09;;;;;;;;;;;26.50;99.90;;;;;;5012667;28;19909;-60
2023/02/01 01:28:35;;;;;;;;;;;26.70;99.90;;;;;;5012975;28;20230;-61
2023/02/01 01:31:02;;;;;;;;;;;27.30;99.90;;;;;;5012372;28;20387;-61
2023/02/01 01:33:29;;;;;;;;;;;28.00;99.90;;;;;;5012672;28;19909;-61
2023/02/01 01:35:56;;;;;;;;;;;28.60;99.90;;;;;;5013925;28;19927;-64
2023/02/01 01:38:22;;;;;;;;;;;29.20;99.90;;;;;;5012667;28;19909;-63
2023/02/01 01:40:52;;;;;;;;;;;28.90;99.90;;;;;;5012504;28;20066;-63
2023/02/01 01:43:20;;;;;;;;;;;28.60;99.90;;;;;;5011240;28;19910;-62
2023/02/01 01:45:47;;;;;;;;;;;28.80;99.90;;;;;;5012416;28;20021;-64
2023/02/01 01:48:16;;;;;;;;;;;29.10;99.90;;;;;;5012236;28;19917;-60
2023/02/01 01:50:51;;;;;;;;;;;28.90;99.90;;;;;;5012031;28;20002;-62
2023/02/01 01:53:20;;;;;;;;;;;28.40;99.90;;;;;;5011790;28;19909;-61
2023/02/01 01:55:48;;;;;;;;;;;28.50;99.90;;;;;;5012148;28;19929;-61
2023/02/01 01:58:17;;;;;;;;;;;28.80;99.90;;;;;;5011892;28;19921;-61
2023/02/01 02:00:45;;;;;;;;;;;28.60;99.90;;;;;;5012051;28;19917;-60
2023/02/01 02:03:18;;;;;;;;;;;28.20;99.90;;;;;;5011559;28;19941;-61
2023/02/01 02:05:45;;;;;;;;;;;27.90;99.90;;;;;;5012045;28;19909;-63
2023/02/01 02:08:12;;;;;;;;;;;27.80;99.90;;;;;;5011873;28;19913;-61
2023/02/01 02:13:25;;;;;;;;;;;27.40;99.90;;;;;;5012058;28;20267;-61
2023/02/01 02:16:10;;;;;;;;;;;27.30;99.90;;;;;;5012030;28;20280;-59
2023/02/01 02:18:57;;;;;;;;;;;27.30;99.90;;;;;;5011693;28;19910;-61
2023/02/01 02:21:42;;;;;;;;;;;27.40;99.90;;;;;;4990622;28;19914;-60
2023/02/01 02:24:14;;;;;;;;;;;27.40;99.90;;;;;;5012026;28;19910;-61
2023/02/01 02:26:53;;;;;;;;;;;27.30;99.90;;;;;;5012006;28;19909;-61
2023/02/01 02:29:37;;;;;;;;;;;27.30;99.90;;;;;;5011831;28;19916;-60
2023/02/01 02:32:13;;;;;;;;;;;27.30;99.90;;;;;;5011825;28;19976;-61
2023/02/01 02:34:52;;;;;;;;;;;27.30;99.90;;;;;;5011823;28;19925;-63
2023/02/01 02:37:38;;;;;;;;;;;27.40;99.90;;;;;;5011861;28;19914;-62
2023/02/01 02:40:08;;;;;;;;;;;27.30;99.90;;;;;;5012441;28;19921;-61
2023/02/01 02:48:22;;;;;;;;;;;27.30;99.90;;;;;;5012051;28;20284;-61
2023/02/01 03:05:00;;;;;;;;;;;27.10;99.90;;;;;;5015770;28;19939;-65
2023/02/01 03:07:45;;;;;;;;;;;27.20;99.90;;;;;;5015219;28;19916;-62
2023/02/01 03:10:18;;;;;;;;;;;27.30;99.90;;;;;;5015235;28;20040;-63
2023/02/01 03:12:57;;;;;;;;;;;27.10;99.90;;;;;;5014797;28;20380;-62
2023/02/01 03:15:33;;;;;;;;;;;27.10;99.90;;;;;;5015214;28;19980;-62
2023/02/01 03:18:01;;;;;;;;;;;27.00;99.90;;;;;;5015186;28;20117;-61
2023/02/01 03:20:29;;;;;;;;;;;26.90;99.90;;;;;;5015117;28;20005;-62
2023/02/01 03:22:57;;;;;;;;;;;27.10;99.90;;;;;;5014757;28;19914;-61
2023/02/01 03:25:31;;;;;;;;;;;26.90;99.90;;;;;;5014941;28;20020;-61
2023/02/01 03:28:02;;;;;;;;;;;27.10;99.90;;;;;;5015410;28;20334;-61
2023/02/01 03:30:32;;;;;;;;;;;27.20;99.90;;;;;;5015093;28;19913;-62
2023/02/01 03:33:00;;;;;;;;;;;27.20;99.90;;;;;;5014568;28;19909;-62
2023/02/01 03:35:36;;;;;;;;;;;27.30;99.90;;;;;;5014479;28;19917;-61
2023/02/01 03:38:21;;;;;;;;;;;27.10;99.90;;;;;;5015098;28;19909;-62
2023/02/01 03:40:52;;;;;;;;;;;27.10;99.90;;;;;;5014490;28;19913;-62
2023/02/01 03:43:20;;;;;;;;;;;27.10;99.90;;;;;;5014297;28;20353;-64
2023/02/01 03:45:50;;;;;;;;;;;27.20;99.90;;;;;;5014999;28;19955;-62
2023/02/01 03:48:17;;;;;;;;;;;27.10;99.90;;;;;;5014265;28;20342;-62
2023/02/01 03:50:46;;;;;;;;;;;27.10;99.90;;;;;;5014021;28;19909;-63
2023/02/01 03:53:17;;;;;;;;;;;27.30;99.90;;;;;;5014007;28;20008;-62
2023/02/01 03:55:44;;;;;;;;;;;27.20;99.90;;;;;;5014477;28;19937;-61
2023/02/01 03:58:11;;;;;;;;;;;27.10;99.90;;;;;;5014515;28;19910;-61
2023/02/01 04:00:38;;;;;;;;;;;27.10;99.90;;;;;;5014095;28;19936;-61
2023/02/01 04:03:05;;;;;;;;;;;27.00;99.90;;;;;;5013938;28;19914;-62
2023/02/01 04:05:32;;;;;;;;;;;27.10;99.90;;;;;;5014309;28;19913;-61
2023/02/01 04:07:59;;;;;;;;;;;27.00;99.90;;;;;;5013572;28;19910;-62
2023/02/01 04:10:26;;;;;;;;;;;26.80;99.90;;;;;;5013640;28;19909;-68
2023/02/01 04:12:52;;;;;;;;;;;26.80;99.90;;;;;;5013703;28;20387;-66
2023/02/01 04:15:19;;;;;;;;;;;26.80;99.90;;;;;;5013857;28;19918;-64
2023/02/01 04:17:46;;;;;;;;;;;26.90;99.90;;;;;;5013840;28;19917;-60
2023/02/01 04:20:12;;;;;;;;;;;26.90;99.90;;;;;;5014058;28;19909;-63
2023/02/01 04:22:39;;;;;;;;;;;27.20;99.90;;;;;;5013275;28;19910;-60
2023/02/01 04:25:06;;;;;;;;;;;27.20;99.90;;;;;;5013484;28;19932;-60
2023/02/01 04:27:33;;;;;;;;;;;27.30;99.90;;;;;;5013698;28;19920;-61
2023/02/01 04:29:59;;;;;;;;;;;26.90;99.90;;;;;;5013538;28;19914;-61
2023/02/01 04:32:26;;;;;;;;;;;26.80;99.90;;;;;;5013226;28;19909;-62
2023/02/01 04:34:52;;;;;;;;;;;26.80;99.90;;;;;;5013734;28;19917;-62
2023/02/01 04:37:19;;;;;;;;;;;27.10;99.90;;;;;;5013384;28;19966;-65
2023/02/01 04:39:46;;;;;;;;;;;26.80;99.90;;;;;;5013358;28;19953;-61
2023/02/01 04:42:16;;;;;;;;;;;26.80;99.90;;;;;;5013049;28;19913;-64
2023/02/01 04:44:43;;;;;;;;;;;26.70;99.90;;;;;;5013612;28;19913;-64
2023/02/01 04:47:09;;;;;;;;;;;26.60;99.90;;;;;;5013502;28;19909;-61
2023/02/01 04:49:36;;;;;;;;;;;26.70;99.90;;;;;;5013081;28;20005;-61
2023/02/01 04:52:03;;;;;;;;;;;26.80;99.90;;;;;;5013438;28;19909;-66
2023/02/01 04:54:30;;;;;;;;;;;26.90;99.90;;;;;;5013207;28;19909;-61
2023/02/01 04:56:56;;;;;;;;;;;27.00;99.90;;;;;;5013563;28;19913;-60
2023/02/01 04:59:23;;;;;;;;;;;26.90;99.90;;;;;;5013129;28;19913;-61
2023/02/01 05:01:50;;;;;;;;;;;26.90;99.90;;;;;;5012606;28;19960;-61
2023/02/01 05:04:18;;;;;;;;;;;26.80;99.90;;;;;;5013310;28;19913;-61
2023/02/01 05:06:45;;;;;;;;;;;26.70;99.90;;;;;;5013064;28;20302;-61
2023/02/01 05:09:12;;;;;;;;;;;26.70;99.90;;;;;;4995160;28;20336;-62
2023/02/01 05:14:23;;;;;;;;;;;26.70;99.90;;;;;;5013526;28;19916;-71
2023/02/01 05:16:50;;;;;;;;;;;26.50;99.90;;;;;;5013005;28;19914;-66
2023/02/01 05:19:16;;;;;;;;;;;26.30;99.90;;;;;;5012307;28;19921;-61
2023/02/01 05:21:43;;;;;;;;;;;26.40;99.90;;;;;;5012581;28;19914;-61
2023/02/01 05:24:10;;;;;;;;;;;26.50;99.90;;;;;;5012853;28;20000;-63
2023/02/01 05:26:37;;;;;;;;;;;26.60;99.90;;;;;;5013157;28;20050;-61
2023/02/01 05:29:05;;;;;;;;;;;26.60;99.90;;;;;;5012941;28;19916;-61
2023/02/01 05:31:31;;;;;;;;;;;26.60;99.90;;;;;;5012217;28;20354;-61
2023/02/01 05:33:58;;;;;;;;;;;26.80;99.90;;;;;;5012434;28;20051;-61
2023/02/01 05:36:27;;;;;;;;;;;26.60;99.90;;;;;;5012946;28;20272;-61
2023/02/01 05:38:54;;;;;;;;;;;26.60;99.90;;;;;;5012555;28;20420;-60
2023/02/01 05:41:21;;;;;;;;;;;26.80;99.90;;;;;;5011890;28;19932;-61
2023/02/01 05:43:47;;;;;;;;;;;26.50;99.90;;;;;;5012435;28;20338;-66
2023/02/01 05:46:14;;;;;;;;;;;26.60;99.90;;;;;;5012288;28;19949;-61
2023/02/01 05:48:41;;;;;;;;;;;26.60;99.90;;;;;;5011964;28;20303;-62
2023/02/01 05:51:09;;;;;;;;;;;26.40;99.90;;;;;;5010322;28;19913;-65
2023/02/01 05:53:36;;;;;;;;;;;26.30;99.90;;;;;;5009877;28;19914;-65
2023/02/01 05:56:03;;;;;;;;;;;26.30;99.90;;;;;;5010070;28;19964;-64
2023/02/01 05:58:29;;;;;;;;;;;26.40;99.90;;;;;;5009963;28;20402;-63
2023/02/01 06:00:56;;;;;;;;;;;26.40;99.90;;;;;;5009369;28;19922;-68
2023/02/01 06:03:23;;;;;;;;;;;26.60;99.90;;;;;;5009612;28;19996;-65
2023/02/01 06:05:49;;;;;;;;;;;26.50;99.90;;;;;;5009526;28;20365;-68
2023/02/01 06:08:17;;;;;;;;;;;26.50;99.90;;;;;;5009833;28;19909;-63
2023/02/01 06:10:43;;;;;;;;;;;26.30;99.90;;;;;;5009483;28;19996;-64
2023/02/01 06:13:10;;;;;;;;;;;26.30;99.90;;;;;;5025165;28;19939;-67
2023/02/01 06:15:42;;;;;;;;;;;26.20;99.90;;;;;;5010059;28;19927;-61
2023/02/01 06:18:09;;;;;;;;;;;26.20;99.90;;;;;;5009604;28;19909;-68
2023/02/01 06:20:36;;;;;;;;;;;26.00;99.90;;;;;;5010083;28;20020;-62
2023/02/01 06:23:05;;;;;;;;;;;26.00;99.90;;;;;;5010054;28;19992;-63
2023/02/01 06:25:32;;;;;;;;;;;26.00;99.90;;;;;;5010058;28;20125;-61
2023/02/01 06:28:00;;;;;;;;;;;26.00;99.90;;;;;;5009749;28;19910;-61
2023/02/01 06:30:27;;;;;;;;;;;25.90;99.90;;;;;;5010585;28;19910;-61
2023/02/01 06:32:55;;;;;;;;;;;25.80;99.90;;;;;;5028604;28;19914;-63
2023/02/01 06:35:22;;;;;;;;;;;25.80;99.90;;;;;;5012065;28;20398;-61
2023/02/01 06:37:49;;;;;;;;;;;25.80;99.90;;;;;;5013693;28;19966;-62
2023/02/01 06:40:16;;;;;;;;;;;26.00;99.90;;;;;;5027842;28;20273;-68
2023/02/01 06:42:42;;;;;;;;;;;26.00;99.90;;;;;;5013148;28;19913;-68
2023/02/01 06:45:10;;;;;;;;;;;26.00;99.90;;;;;;5013141;28;19982;-62
2023/02/01 06:47:37;;;;;;;;;;;25.90;99.90;;;;;;5014057;28;20292;-69
2023/02/01 06:50:04;;;;;;;;;;;25.80;99.90;;;;;;5013732;28;20353;-68
2023/02/01 06:52:30;;;;;;;;;;;25.70;99.90;;;;;;5013413;28;19914;-61
2023/02/01 06:54:57;;;;;;;;;;;25.80;99.90;;;;;;5013351;28;20293;-64
2023/02/01 06:57:23;;;;;;;;;;;25.70;99.90;;;;;;5012714;28;20368;-62
2023/02/01 06:59:50;;;;;;;;;;;25.70;99.90;;;;;;5013256;28;19952;-63
2023/02/01 07:02:17;;;;;;;;;;;25.90;99.90;;;;;;5012368;28;20012;-62
2023/02/01 07:04:43;;;;;;;;;;;26.00;99.90;;;;;;5012524;28;20387;-62
2023/02/01 07:07:15;;;;;;;;;;;25.90;99.90;;;;;;5012292;28;20264;-63
2023/02/01 07:09:41;;;;;;;;;;;25.70;99.90;;;;;;5012606;28;20341;-62
2023/02/01 07:12:08;;;;;;;;;;;25.60;99.90;;;;;;5012804;28;19916;-64
2023/02/01 07:14:34;;;;;;;;;;;25.40;99.90;;;;;;5013182;28;19920;-62
2023/02/01 07:17:01;;;;;;;;;;;25.40;99.90;;;;;;5013267;28;19917;-62
2023/02/01 07:19:28;;;;;;;;;;;25.60;99.90;;;;;;5012987;28;19909;-62
2023/02/01 07:21:55;;;;;;;;;;;25.50;99.90;;;;;;5013056;28;20447;-63
2023/02/01 07:24:22;;;;;;;;;;;25.50;99.90;;;;;;5012740;28;19920;-61
2023/02/01 07:26:50;;;;;;;;;;;25.40;99.90;;;;;;5012806;28;19910;-61
2023/02/01 07:29:18;;;;;;;;;;;25.40;99.90;;;;;;5012648;28;20368;-62
2023/02/01 07:31:44;;;;;;;;;;;25.40;99.90;;;;;;5012316;28;19915;-62
2023/02/01 07:34:11;;;;;;;;;;;25.30;99.90;;;;;;5012647;28;20367;-61
2023/02/01 07:36:38;;;;;;;;;;;25.20;99.90;;;;;;5012222;28;19975;-61
2023/02/01 07:39:05;;;;;;;;;;;25.20;99.90;;;;;;5012684;28;19917;-61
2023/02/01 07:41:31;;;;;;;;;;;25.20;99.90;;;;;;5011299;28;19913;-69
2023/02/01 07:43:58;;;;;;;;;;;25.10;99.90;;;;;;5012306;28;19925;-61
2023/02/01 07:46:25;;;;;;;;;;;25.10;99.90;;;;;;5012461;28;19917;-62
2023/02/01 07:48:51;;;;;;;;;;;25.00;99.90;;;;;;5011986;28;20454;-61
2023/02/01 07:51:18;;;;;;;;;;;25.00;99.90;;;;;;5011776;28;19914;-61
2023/02/01 07:53:45;;;;;;;;;;;25.00;99.90;;;;;;5012568;28;19910;-63
2023/02/01 07:56:13;;;;;;;;;;;24.90;99.90;;;;;;5012051;28;19960;-61
2023/02/01 07:58:40;;;;;;;;;;;25.00;99.90;;;;;;5012118;28;19922;-61
2023/02/01 08:01:19;;;;;;;;;;;25.00;99.90;;;;;;5011819;28;20396;-61
2023/02/01 08:03:50;;;;;;;;;;;24.90;99.90;;;;;;5012001;28;19960;-62
2023/02/01 08:06:19;;;;;;;;;;;24.80;99.90;;;;;;5012273;28;19921;-61
2023/02/01 08:08:46;;;;;;;;;;;24.80;99.90;;;;;;5011935;28;19913;-61
2023/02/01 08:11:13;;;;;;;;;;;24.80;99.90;;;;;;5012382;28;20368;-61
2023/02/01 08:13:41;;;;;;;;;;;24.80;99.90;;;;;;5014009;28;19917;-61
2023/02/01 08:16:08;;;;;;;;;;;24.80;99.90;;;;;;5012844;28;20380;-60
2023/02/01 08:18:35;;;;;;;;;;;24.80;99.90;;;;;;5013810;28;19913;-65
2023/02/01 08:21:06;;;;;;;;;;;24.80;99.90;;;;;;5013700;28;19936;-64
2023/02/01 08:23:34;;;;;;;;;;;24.80;99.90;;;;;;5013634;28;19910;-62
2023/02/01 08:26:14;;;;;;;;;;;24.80;99.90;;;;;;5013709;28;19921;-60
2023/02/01 08:28:42;;;;;;;;;;;24.70;99.90;;;;;;5013592;28;19921;-62
2023/02/01 08:31:09;;;;;;;;;;;24.80;99.90;;;;;;5012950;28;19916;-64
2023/02/01 08:33:39;;;;;;;;;;;24.70;99.90;;;;;;5013407;28;19916;-61
2023/02/01 08:36:05;;;;;;;;;;;24.70;99.90;;;;;;5013323;28;19918;-61
2023/02/01 08:38:32;;;;;;;;;;;24.60;99.90;;;;;;5013512;28;19949;-61
2023/02/01 08:41:04;;;;;;;;;;;24.60;99.90;;;;;;5013153;28;19914;-61
2023/02/01 08:43:31;;;;;;;;;;;24.60;99.90;;;;;;5013193;28;20379;-62
2023/02/01 08:45:57;;;;;;;;;;;24.50;99.90;;;;;;5013257;28;20368;-64
2023/02/01 08:48:24;;;;;;;;;;;24.50;99.90;;;;;;5013192;28;19917;-61
2023/02/01 08:50:51;;;;;;;;;;;24.50;99.90;;;;;;5012914;28;19922;-62
2023/02/01 08:53:17;;;;;;;;;;;24.50;99.90;;;;;;5011927;28;20284;-61
2023/02/01 08:55:45;;;;;;;;;;;24.50;99.90;;;;;;5012901;28;19956;-61
2023/02/01 08:58:13;;;;;;;;;;;24.50;99.90;;;;;;5013194;28;19949;-61
2023/02/01 09:00:40;;;;;;;;;;;24.40;99.90;;;;;;5012441;28;19992;-61
2023/02/01 09:03:09;;;;;;;;;;;24.40;99.90;;;;;;5013129;28;19916;-62
2023/02/01 09:05:36;;;;;;;;;;;24.40;99.90;;;;;;5013048;28;19948;-61
2023/02/01 09:08:02;;;;;;;;;;;24.30;99.90;;;;;;5012976;28;19936;-61
2023/02/01 09:10:29;;;;;;;;;;;24.30;99.90;;;;;;5012374;28;19920;-61
2023/02/01 09:12:56;;;;;;;;;;;24.30;99.90;;;;;;5012828;28;19909;-61
2023/02/01 09:15:22;;;;;;;;;;;24.30;99.90;;;;;;5012728;28;19921;-65
2023/02/01 09:17:50;;;;;;;;;;;24.30;99.90;;;;;;5009906;28;20349;-63
2023/02/01 09:20:19;;;;;;;;;;;24.30;99.90;;;;;;5012363;28;19910;-62
2023/02/01 09:22:46;;;;;;;;;;;24.20;99.90;;;;;;5012690;28;19920;-62
2023/02/01 09:25:13;;;;;;;;;;;24.20;99.90;;;;;;5012601;28;20470;-64
2023/02/01 09:27:39;;;;;;;;;;;24.20;99.90;;;;;;5012489;28;19909;-62
2023/02/01 09:30:06;;;;;;;;;;;24.20;99.90;;;;;;5012648;28;19914;-62
2023/02/01 09:32:33;;;;;;;;;;;24.20;99.90;;;;;;5012458;28;19959;-62
2023/02/01 09:34:59;;;;;;;;;;;24.20;99.90;;;;;;5012396;28;20229;-61
2023/02/01 09:37:26;;;;;;;;;;;24.20;99.90;;;;;;5012361;28;19976;-65
2023/02/01 09:39:53;;;;;;;;;;;24.20;99.90;;;;;;5012389;28;20384;-62
2023/02/01 09:42:26;;;;;;;;;;;24.10;99.90;;;;;;5012244;28;20502;-63
2023/02/01 09:45:18;;;;;;;;;;;24.10;99.90;;;;;;5012550;28;19909;-65
2023/02/01 09:47:51;;;;;;;;;;;24.10;99.90;;;;;;4996483;28;19909;-61
2023/02/01 09:50:22;;;;;;;;;;;24.10;99.90;;;;;;5012166;28;20368;-61
2023/02/01 09:52:49;;;;;;;;;;;24.10;99.90;;;;;;5012289;28;19910;-62
2023/02/01 09:55:20;;;;;;;;;;;24.10;99.90;;;;;;5012279;28;19913;-63
2023/02/01 09:58:00;;;;;;;;;;;24.10;99.90;;;;;;5012328;28;19991;-61
2023/02/01 10:00:29;;;;;;;;;;;24.10;99.90;;;;;;5011863;28;20323;-61
2023/02/01 10:02:56;;;;;;;;;;;24.00;99.90;;;;;;5012216;28;20268;-64
2023/02/01 10:05:31;;;;;;;;;;;24.00;99.90;;;;;;5011873;28;19961;-62
2023/02/01 10:08:13;;;;;;;;;;;24.00;99.90;;;;;;5012403;28;19913;-61
2023/02/01 10:10:48;;;;;;;;;;;24.00;99.90;;;;;;5011966;28;19956;-61
2023/02/01 10:13:24;;;;;;;;;;;24.00;99.90;;;;;;5012158;28;20414;-61
2023/02/01 10:16:09;;;;;;;;;;;24.00;99.90;;;;;;5011863;28;19992;-61
2023/02/01 10:18:35;;;;;;;;;;;23.90;99.90;;;;;;5012420;28;19910;-61
2023/02/01 10:21:02;;;;;;;;;;;23.90;99.90;;;;;;5011860;28;20475;-62
2023/02/01 10:23:44;;;;;;;;;;;23.90;99.90;;;;;;5011974;28;19914;-61
2023/02/01 10:26:11;;;;;;;;;;;23.90;99.90;;;;;;5012167;28;19940;-61
2023/02/01 10:28:39;;;;;;;;;;;23.90;99.90;;;;;;5012111;28;19914;-61
2023/02/01 10:31:08;;;;;;;;;;;23.90;99.90;;;;;;5011780;28;20027;-60
2023/02/01 10:33:55;;;;;;;;;;;23.90;99.90;;;;;;5011838;28;19988;-61
2023/02/01 10:36:56;;;;;;;;;;;23.90;99.90;;;;;;5011561;28;19918;-61
2023/02/01 10:39:23;;;;;;;;;;;23.80;99.90;;;;;;4970240;28;19958;-61
2023/02/01 10:41:50;;;;;;;;;;;23.70;99.90;;;;;;5003266;28;19962;-60
2023/02/01 10:44:22;;;;;;;;;;;23.80;99.90;;;;;;5011833;28;19963;-61
2023/02/01 10:46:49;;;;;;;;;;;23.80;99.90;;;;;;5011710;28;19913;-61
2023/02/01 10:49:42;;;;;;;;;;;23.80;99.90;;;;;;5011558;28;19914;-61
2023/02/01 10:52:21;;;;;;;;;;;23.70;99.90;;;;;;4995698;28;19992;-60
2023/02/01 10:54:48;;;;;;;;;;;23.80;99.90;;;;;;5011501;28;20368;-61
2023/02/01 10:57:24;;;;;;;;;;;23.70;99.90;;;;;;5011440;28;19921;-60
2023/02/01 10:59:51;;;;;;;;;;;23.70;99.90;;;;;;5011819;28;19922;-64
2023/02/01 11:02:20;;;;;;;;;;;23.70;99.90;;;;;;5011114;28;19921;-60
2023/02/01 11:04:47;;;;;;;;;;;23.70;99.90;;;;;;5011908;28;19913;-61
2023/02/01 11:07:17;;;;;;;;;;;23.70;99.90;;;;;;5011566;28;19916;-61
2023/02/01 11:09:49;;;;;;;;;;;23.70;99.90;;;;;;5011459;28;19914;-64
2023/02/01 11:12:34;;;;;;;;;;;23.70;99.90;;;;;;5011473;28;19910;-61
2023/02/01 11:15:14;;;;;;;;;;;23.70;99.90;;;;;;5011581;28;20019;-64
2023/02/01 11:17:43;;;;;;;;;;;23.70;99.90;;;;;;5013292;28;19924;-61
2023/02/01 11:20:17;;;;;;;;;;;23.70;99.90;;;;;;5014874;28;19920;-61
2023/02/01 11:23:09;;;;;;;;;;;23.60;99.90;;;;;;5015163;28;19913;-61
2023/02/01 11:25:36;;;;;;;;;;;23.60;99.90;;;;;;5012843;28;20332;-62
2023/02/01 11:28:03;;;;;;;;;;;23.60;99.90;;;;;;5014945;28;19909;-61
2023/02/01 11:30:34;;;;;;;;;;;23.60;99.90;;;;;;5014625;28;19909;-60
2023/02/01 11:33:02;;;;;;;;;;;23.60;99.90;;;;;;5014883;28;19909;-61
2023/02/01 11:35:30;;;;;;;;;;;23.60;99.90;;;;;;5014541;28;20288;-61
2023/02/01 11:37:58;;;;;;;;;;;23.60;99.90;;;;;;5014812;28;19919;-61
2023/02/01 11:40:27;;;;;;;;;;;23.50;99.90;;;;;;5014341;28;19979;-61
2023/02/01 11:42:54;;;;;;;;;;;23.50;99.90;;;;;;5014627;28;19909;-60
2023/02/01 11:45:25;;;;;;;;;;;23.50;99.90;;;;;;5014184;28;19917;-61
2023/02/01 11:47:55;;;;;;;;;;;23.50;99.90;;;;;;5014667;28;19913;-61
2023/02/01 11:50:26;;;;;;;;;;;23.50;99.90;;;;;;5014410;28;19910;-62
2023/02/01 11:52:53;;;;;;;;;;;23.50;99.90;;;;;;5014581;28;19963;-61
2023/02/01 11:55:37;;;;;;;;;;;23.40;99.90;;;;;;5014379;28;19917;-61
2023/02/01 11:58:04;;;;;;;;;;;23.40;99.90;;;;;;5014447;28;19940;-61
2023/02/01 12:00:36;;;;;;;;;;;23.50;99.90;;;;;;5013892;28;20280;-61
2023/02/01 12:03:21;;;;;;;;;;;23.50;99.90;;;;;;5014315;28;20284;-62
2023/02/01 12:06:08;;;;;;;;;;;23.50;99.90;;;;;;5014507;28;20418;-61
2023/02/01 12:08:53;;;;;;;;;;;23.50;99.90;;;;;;5014265;28;19910;-62
2023/02/01 12:11:20;;;;;;;;;;;23.50;99.90;;;;;;5013701;28;19910;-61
2023/02/01 12:14:03;;;;;;;;;;;23.50;99.90;;;;;;5014140;28;20004;-61
2023/02/01 12:16:48;;;;;;;;;;;23.50;99.90;;;;;;5013884;28;20527;-63
2023/02/01 12:19:38;;;;;;;;;;;23.40;99.90;;;;;;5013885;28;19913;-61
2023/02/01 12:22:23;;;;;;;;;;;23.50;99.90;;;;;;5008132;28;19940;-61
2023/02/01 12:24:50;;;;;;;;;;;23.50;99.90;;;;;;5013874;28;19916;-62
2023/02/01 12:27:16;;;;;;;;;;;23.40;99.90;;;;;;5013651;28;19960;-61
2023/02/01 12:29:57;;;;;;;;;;;23.40;99.90;;;;;;5013673;28;19931;-62
2023/02/01 12:32:27;;;;;;;;;;;23.40;99.90;;;;;;5013853;28;19955;-64
2023/02/01 12:35:12;;;;;;;;;;;23.50;99.90;;;;;;5013837;28;20658;-63
2023/02/01 12:37:40;;;;;;;;;;;23.40;99.90;;;;;;5013736;28;19909;-61
2023/02/01 12:40:19;;;;;;;;;;;23.40;99.90;;;;;;5013392;28;19913;-64
2023/02/01 12:42:57;;;;;;;;;;;23.40;99.90;;;;;;5013691;28;20482;-65
2023/02/01 12:45:41;;;;;;;;;;;23.40;99.90;;;;;;5013170;28;19909;-61
2023/02/01 12:48:18;;;;;;;;;;;23.30;99.90;;;;;;5013677;28;19910;-61
2023/02/01 12:50:51;;;;;;;;;;;23.30;99.90;;;;;;5013140;28;20277;-61
2023/02/01 12:53:23;;;;;;;;;;;23.30;99.90;;;;;;5013179;28;19920;-61
2023/02/01 12:55:52;;;;;;;;;;;23.30;99.90;;;;;;5013500;28;19925;-61
2023/02/01 12:58:21;;;;;;;;;;;23.30;99.90;;;;;;5013499;28;19914;-61
2023/02/01 13:01:08;;;;;;;;;;;23.30;99.90;;;;;;5012543;28;19920;-61
2023/02/01 13:03:53;;;;;;;;;;;23.30;99.90;;;;;;5013123;28;19914;-60
2023/02/01 13:06:22;;;;;;;;;;;23.20;99.90;;;;;;5013327;28;19909;-61
2023/02/01 13:08:54;;;;;;;;;;;23.30;99.90;;;;;;5013101;28;19917;-60
2023/02/01 13:11:21;;;;;;;;;;;23.20;99.90;;;;;;5012786;28;19920;-60
2023/02/01 13:14:20;;;;;;;;;;;23.20;99.90;;;;;;5013066;28;19909;-61
2023/02/01 13:16:56;;;;;;;;;;;23.30;99.90;;;;;;4990068;28;19927;-62
2023/02/01 13:19:29;;;;;;;;;;;23.30;99.90;;;;;;5012840;28;19920;-59
2023/02/01 13:21:59;;;;;;;;;;;23.40;99.90;;;;;;5012723;28;20282;-59
2023/02/01 13:24:39;;;;;;;;;;;23.40;99.90;;;;;;5012835;28;19909;-59
2023/02/01 13:27:06;;;;;;;;;;;23.40;99.90;;;;;;5012926;28;19967;-61
2023/02/01 13:29:33;;;;;;;;;;;23.40;99.90;;;;;;5012396;28;19910;-60
2023/02/01 13:32:03;;;;;;;;;;;23.40;99.90;;;;;;5012307;28;20357;-59
2023/02/01 13:34:46;;;;;;;;;;;23.40;99.90;;;;;;5012810;28;19914;-60
2023/02/01 13:37:27;;;;;;;;;;;23.40;99.90;;;;;;5012597;28;19924;-60
2023/02/01 13:40:14;;;;;;;;;;;23.50;99.90;;;;;;5011733;28;19914;-60
2023/02/01 13:42:50;;;;;;;;;;;23.50;99.90;;;;;;5012588;28;19964;-61
2023/02/01 13:45:36;;;;;;;;;;;23.40;99.90;;;;;;5012124;28;19944;-60
2023/02/01 13:48:04;;;;;;;;;;;23.40;99.90;;;;;;5012474;28;19953;-60
2023/02/01 13:50:37;;;;;;;;;;;23.50;99.90;;;;;;5012209;28;19916;-60
2023/02/01 13:53:04;;;;;;;;;;;23.50;99.90;;;;;;5012459;28;20288;-60
2023/02/01 13:55:33;;;;;;;;;;;23.40;99.90;;;;;;5012394;28;19921;-60
2023/02/01 13:58:06;;;;;;;;;;;23.50;99.90;;;;;;5012433;28;19913;-60
2023/02/01 14:00:34;;;;;;;;;;;23.50;99.90;;;;;;5011867;28;20324;-60
2023/02/01 14:03:01;;;;;;;;;;;23.50;99.90;;;;;;5012309;28;20349;-60
2023/02/01 14:05:29;;;;;;;;;;;23.50;99.90;;;;;;5012272;28;19914;-60
2023/02/01 14:08:15;;;;;;;;;;;23.50;99.90;;;;;;5012456;28;19920;-60
2023/02/01 14:10:51;;;;;;;;;;;23.50;99.90;;;;;;5004546;28;19959;-61
2023/02/01 14:13:37;;;;;;;;;;;23.50;99.90;;;;;;5012208;28;20390;-61
2023/02/01 14:16:04;;;;;;;;;;;23.50;99.90;;;;;;5011659;28;19948;-60
2023/02/01 14:18:46;;;;;;;;;;;23.40;99.90;;;;;;5012317;28;19920;-61
2023/02/01 14:21:15;;;;;;;;;;;23.40;99.90;;;;;;5011717;28;20296;-61
2023/02/01 14:23:44;;;;;;;;;;;23.40;99.90;;;;;;5012152;28;19916;-61
2023/02/01 14:26:12;;;;;;;;;;;23.40;99.90;;;;;;5012179;28;19959;-61
2023/02/01 14:28:42;;;;;;;;;;;23.30;99.90;;;;;;5012162;28;19918;-60
2023/02/01 14:31:17;;;;;;;;;;;23.30;99.90;;;;;;5011679;28;19914;-60
2023/02/01 14:33:44;;;;;;;;;;;23.30;99.90;;;;;;5011950;28;19914;-60
2023/02/01 14:36:13;;;;;;;;;;;23.40;99.90;;;;;;5011949;28;19929;-61
2023/02/01 14:38:40;;;;;;;;;;;23.40;99.90;;;;;;5011924;28;19921;-61
2023/02/01 14:41:25;;;;;;;;;;;23.40;99.90;;;;;;5011726;28;19910;-61
2023/02/01 14:44:12;;;;;;;;;;;23.40;99.90;;;;;;5011991;28;19921;-60
2023/02/01 14:46:57;;;;;;;;;;;23.40;99.90;;;;;;5011845;28;20276;-61
2023/02/01 14:49:23;;;;;;;;;;;23.40;99.90;;;;;;5011672;28;20326;-61
2023/02/01 14:51:51;;;;;;;;;;;23.40;99.90;;;;;;5013671;28;20400;-61
2023/02/01 14:54:19;;;;;;;;;;;23.40;99.90;;;;;;5015792;28;19910;-60
2023/02/01 14:56:46;;;;;;;;;;;23.30;99.90;;;;;;5015506;28;19917;-60
2023/02/01 14:59:17;;;;;;;;;;;23.30;99.90;;;;;;5015487;28;19921;-61
2023/02/01 15:01:52;;;;;;;;;;;23.30;99.90;;;;;;5015035;28;19977;-60